createdAt,value
2023-05-14T00:00:48.254Z,105.38
2023-05-14T00:01:48.285Z,101.31
2023-05-14T00:02:48.417Z,106.28
2023-05-14T00:03:48.453Z,107.91
2023-05-14T00:04:48.455Z,104.88
2023-05-14T00:05:48.469Z,109.57
2023-05-14T00:06:48.508Z,100.84
2023-05-14T00:07:48.566Z,104.55
2023-05-14T00:08:48.570Z,104.63
2023-05-14T00:09:48.627Z,104.36
2023-05-14T00:10:48.688Z,106.33
2023-05-14T00:11:48.706Z,109.06
2023-05-14T00:12:48.761Z,108.57
2023-05-14T00:13:48.779Z,108.13
2023-05-14T00:14:48.850Z,103.52
2023-05-14T00:15:48.932Z,104.43
2023-05-14T00:16:48.914Z,108.28
2023-05-14T00:17:49.031Z,96.55
2023-05-14T00:18:49.034Z,104.86
2023-05-14T00:19:49.030Z,101.04
2023-05-14T00:20:49.078Z,97.77
2023-05-14T00:21:49.124Z,101.26
2023-05-14T00:22:49.173Z,105.33
2023-05-14T00:23:49.220Z,102.84
2023-05-14T00:24:49.211Z,102.97
2023-05-14T00:25:49.197Z,103.17
2023-05-14T00:26:49.194Z,102.98
2023-05-14T00:27:49.199Z,104.42
2023-05-14T00:28:49.174Z,108.95
2023-05-14T00:29:49.171Z,100.92
2023-05-14T00:30:49.178Z,104.14
2023-05-14T00:31:49.299Z,105.99
2023-05-14T00:32:49.228Z,100.14
2023-05-14T00:33:49.144Z,101.10
2023-05-14T00:34:49.179Z,102.09
2023-05-14T00:35:49.220Z,106.59
2023-05-14T00:36:49.266Z,98.42
2023-05-14T00:37:49.306Z,102.21
2023-05-14T00:38:49.378Z,104.83
2023-05-14T00:39:49.415Z,101.56
2023-05-14T00:40:49.455Z,101.33
2023-05-14T00:41:49.489Z,101.87
2023-05-14T00:42:49.551Z,97.73
2023-05-14T00:43:49.572Z,105.73
2023-05-14T00:44:49.636Z,101.07
2023-05-14T00:45:49.667Z,98.20
2023-05-14T00:46:49.739Z,108.81
2023-05-14T00:47:49.780Z,97.29
2023-05-14T00:48:49.836Z,99.89
2023-05-14T00:49:49.874Z,101.52
2023-05-14T00:50:49.915Z,102.18
2023-05-14T00:51:49.979Z,99.35
2023-05-14T00:52:50.004Z,99.32
2023-05-14T00:53:50.044Z,100.73
2023-05-14T00:54:50.128Z,107.19
2023-05-14T00:55:50.150Z,101.70
2023-05-14T00:56:50.201Z,97.72
2023-05-14T00:57:50.236Z,105.05
2023-05-14T00:58:50.292Z,103.79
2023-05-14T00:59:50.336Z,102.84
2023-05-14T01:00:50.413Z,93.31
2023-05-14T01:01:50.432Z,95.26
2023-05-14T01:02:50.531Z,101.48
2023-05-14T01:03:50.624Z,103.98
2023-05-14T01:04:50.584Z,103.80
2023-05-14T01:05:50.619Z,105.68
2023-05-14T01:06:50.667Z,99.48
2023-05-14T01:07:50.720Z,102.82
2023-05-14T01:08:50.792Z,99.80
2023-05-14T01:09:50.810Z,100.66
2023-05-14T01:10:50.858Z,113.56
2023-05-14T01:11:50.895Z,103.24
2023-05-14T01:12:50.961Z,102.48
2023-05-14T01:13:50.988Z,99.38
2023-05-14T01:14:51.110Z,101.69
2023-05-14T01:15:51.111Z,98.35
2023-05-14T01:16:51.228Z,101.71
2023-05-14T01:17:51.240Z,99.82
2023-05-14T01:18:51.354Z,100.01
2023-05-14T01:19:51.314Z,97.85
2023-05-14T01:20:51.325Z,103.78
2023-05-14T01:21:51.380Z,106.20
2023-05-14T01:22:51.427Z,96.33
2023-05-14T01:23:51.491Z,91.30
2023-05-14T01:24:51.538Z,100.22
2023-05-14T01:25:51.585Z,97.47
2023-05-14T01:26:51.628Z,94.55
2023-05-14T01:27:51.622Z,94.73
2023-05-14T01:28:51.674Z,95.01
2023-05-14T01:29:51.636Z,94.74
2023-05-14T01:30:51.603Z,98.45
2023-05-14T01:31:51.662Z,104.79
2023-05-14T01:32:51.709Z,98.28
2023-05-14T01:33:51.584Z,98.65
2023-05-14T01:34:51.565Z,99.83
2023-05-14T01:35:51.546Z,94.88
2023-05-14T01:36:51.586Z,97.05
2023-05-14T01:37:51.641Z,99.44
2023-05-14T01:38:51.662Z,97.96
2023-05-14T01:39:51.719Z,100.81
2023-05-14T01:40:51.782Z,95.25
2023-05-14T01:41:51.792Z,95.75
2023-05-14T01:42:51.832Z,95.92
2023-05-14T01:43:51.793Z,96.89
2023-05-14T01:44:51.779Z,96.46
2023-05-14T01:45:51.787Z,102.67
2023-05-14T01:46:51.800Z,104.03
2023-05-14T01:47:51.814Z,95.52
2023-05-14T01:48:51.747Z,95.88
2023-05-14T01:49:51.742Z,96.75
2023-05-14T01:50:51.737Z,97.02
2023-05-14T01:51:51.724Z,95.46
2023-05-14T01:52:51.723Z,98.34
2023-05-14T01:53:51.703Z,96.70
2023-05-14T01:54:51.713Z,93.71
2023-05-14T01:55:51.698Z,94.91
2023-05-14T01:56:51.679Z,95.35
2023-05-14T01:57:51.678Z,96.93
2023-05-14T01:58:51.683Z,96.37
2023-05-14T01:59:51.665Z,98.50
2023-05-14T02:00:51.680Z,100.41
2023-05-14T02:01:51.704Z,92.46
2023-05-14T02:02:51.711Z,92.45
2023-05-14T02:03:51.685Z,95.81
2023-05-14T02:04:51.657Z,90.61
2023-05-14T02:05:51.687Z,97.55
2023-05-14T02:06:51.733Z,94.80
2023-05-14T02:07:51.785Z,102.76
2023-05-14T02:08:51.840Z,98.96
2023-05-14T02:09:51.815Z,99.30
2023-05-14T02:10:51.798Z,99.57
2023-05-14T02:11:51.811Z,99.38
2023-05-14T02:12:51.769Z,97.73
2023-05-14T02:13:51.777Z,101.37
2023-05-14T02:14:51.748Z,103.94
2023-05-14T02:15:51.823Z,92.13
2023-05-14T02:16:51.724Z,100.67
2023-05-14T02:17:51.831Z,100.72
2023-05-14T02:18:51.728Z,94.77
2023-05-14T02:19:51.703Z,91.98
2023-05-14T02:20:51.670Z,97.11
2023-05-14T02:21:51.669Z,99.53
2023-05-14T02:22:51.632Z,95.99
2023-05-14T02:23:51.643Z,98.70
2023-05-14T02:24:51.673Z,97.30
2023-05-14T02:25:51.649Z,95.96
2023-05-14T02:26:51.716Z,96.01
2023-05-14T02:27:51.764Z,94.67
2023-05-14T02:28:51.822Z,90.47
2023-05-14T02:29:51.839Z,89.44
2023-05-14T02:30:51.889Z,91.06
2023-05-14T02:31:52.117Z,87.48
2023-05-14T02:32:51.962Z,87.91
2023-05-14T02:33:51.913Z,88.16
2023-05-14T02:34:51.884Z,89.22
2023-05-14T02:35:51.887Z,91.37
2023-05-14T02:36:51.896Z,95.91
2023-05-14T02:37:51.849Z,103.17
2023-05-14T02:38:51.829Z,98.07
2023-05-14T02:39:51.809Z,92.88
2023-05-14T02:40:51.809Z,89.16
2023-05-14T02:41:51.826Z,92.14
2023-05-14T02:42:51.895Z,88.70
2023-05-14T02:43:51.940Z,92.26
2023-05-14T02:44:52.008Z,88.35
2023-05-14T02:45:52.082Z,90.49
2023-05-14T02:46:52.144Z,96.03
2023-05-14T02:47:52.150Z,91.91
2023-05-14T02:48:52.108Z,91.93
2023-05-14T02:49:52.086Z,86.02
2023-05-14T02:50:52.115Z,82.96
2023-05-14T02:51:52.071Z,78.29
2023-05-14T02:52:52.062Z,63.32
2023-05-14T02:53:52.048Z,53.59
2023-05-14T02:54:52.060Z,36.90
2023-05-14T02:55:52.034Z,37.06
2023-05-14T02:56:52.025Z,33.19
2023-05-14T02:57:52.039Z,23.70
2023-05-14T02:58:52.031Z,18.06
2023-05-14T02:59:52.039Z,5.73
2023-05-14T03:00:52.064Z,25.00
2023-05-14T03:01:52.085Z,25.00
2023-05-14T03:02:52.121Z,27.68
2023-05-14T03:03:52.013Z,25.33
2023-05-14T03:04:52.015Z,24.39
2023-05-14T03:05:52.077Z,25.00
2023-05-14T03:06:52.018Z,25.00
2023-05-14T03:07:52.030Z,25.00
2023-05-14T03:08:52.014Z,25.13
2023-05-14T03:09:52.008Z,25.00
2023-05-14T03:10:52.006Z,25.00
2023-05-14T03:11:52.011Z,26.90
2023-05-14T03:12:52.044Z,25.00
2023-05-14T03:13:52.021Z,25.42
2023-05-14T03:14:52.024Z,25.53
2023-05-14T03:15:52.045Z,16.04
2023-05-14T03:16:52.030Z,12.32
2023-05-14T03:17:52.076Z,9.19
2023-05-14T03:18:52.096Z,5.08
2023-05-14T03:19:52.019Z,25.00
2023-05-14T03:20:52.012Z,25.24
2023-05-14T03:21:52.018Z,25.95
2023-05-14T03:22:52.025Z,26.76
2023-05-14T03:23:52.020Z,27.24
2023-05-14T03:24:52.007Z,25.73
2023-05-14T03:25:52.033Z,25.57
2023-05-14T03:26:52.012Z,27.84
2023-05-14T03:27:52.025Z,25.00
2023-05-14T03:28:52.028Z,27.05
2023-05-14T03:29:52.037Z,25.91
2023-05-14T03:30:52.072Z,26.75
2023-05-14T03:31:52.090Z,26.86
2023-05-14T03:32:52.206Z,25.85
2023-05-14T03:33:52.212Z,25.87
2023-05-14T03:34:52.260Z,27.51
2023-05-14T03:35:52.320Z,27.20
2023-05-14T03:36:52.371Z,27.76
2023-05-14T03:37:52.417Z,25.00
2023-05-14T03:38:52.465Z,27.80
2023-05-14T03:39:52.521Z,27.38
2023-05-14T03:40:52.584Z,28.42
2023-05-14T03:41:52.643Z,28.27
2023-05-14T03:42:52.715Z,27.35
2023-05-14T03:43:52.764Z,30.05
2023-05-14T03:44:52.820Z,26.50
2023-05-14T03:45:52.967Z,28.39
2023-05-14T03:46:52.954Z,28.95
2023-05-14T03:47:53.049Z,26.39
2023-05-14T03:48:53.091Z,28.19
2023-05-14T03:49:53.167Z,26.03
2023-05-14T03:50:53.191Z,25.00
2023-05-14T03:51:53.257Z,27.57
2023-05-14T03:52:53.331Z,28.62
2023-05-14T03:53:53.411Z,25.23
2023-05-14T03:54:53.461Z,25.00
2023-05-14T03:55:53.519Z,27.18
2023-05-14T03:56:53.576Z,25.00
2023-05-14T03:57:53.635Z,25.00
2023-05-14T03:58:53.693Z,25.98
2023-05-14T03:59:53.746Z,25.17
2023-05-14T04:00:53.802Z,25.54
2023-05-14T04:01:53.860Z,27.89
2023-05-14T04:02:53.950Z,27.28
2023-05-14T04:03:54.098Z,26.07
2023-05-14T04:04:54.146Z,29.25
2023-05-14T04:05:54.070Z,29.33
2023-05-14T04:06:54.064Z,26.63
2023-05-14T04:07:54.083Z,26.34
2023-05-14T04:08:54.078Z,24.14
2023-05-14T04:09:54.087Z,24.51
2023-05-14T04:10:54.099Z,25.34
2023-05-14T04:11:54.082Z,29.31
2023-05-14T04:12:54.082Z,27.89
2023-05-14T04:13:54.098Z,23.02
2023-05-14T04:14:54.098Z,24.91
2023-05-14T04:15:54.154Z,25.00
2023-05-14T04:16:54.097Z,27.04
2023-05-14T04:17:54.168Z,25.92
2023-05-14T04:18:54.173Z,25.90
2023-05-14T04:19:54.131Z,27.82
2023-05-14T04:20:54.221Z,25.00
2023-05-14T04:21:54.279Z,28.10
2023-05-14T04:22:54.332Z,28.68
2023-05-14T04:23:54.390Z,27.12
2023-05-14T04:24:54.455Z,28.70
2023-05-14T04:25:54.533Z,28.40
2023-05-14T04:26:54.578Z,25.00
2023-05-14T04:27:54.623Z,27.58
2023-05-14T04:28:54.683Z,26.58
2023-05-14T04:29:54.750Z,25.79
2023-05-14T04:30:54.857Z,26.53
2023-05-14T04:31:54.923Z,26.82
2023-05-14T04:32:54.963Z,25.97
2023-05-14T04:33:55.001Z,30.01
2023-05-14T04:34:55.058Z,26.73
2023-05-14T04:35:55.145Z,26.71
2023-05-14T04:36:55.138Z,26.81
2023-05-14T04:37:55.133Z,26.80
2023-05-14T04:38:55.137Z,25.92
2023-05-14T04:39:55.131Z,26.47
2023-05-14T04:40:55.150Z,24.62
2023-05-14T04:41:55.142Z,22.63
2023-05-14T04:42:55.153Z,25.00
2023-05-14T04:43:55.156Z,28.20
2023-05-14T04:44:55.151Z,26.11
2023-05-14T04:45:55.232Z,28.15
2023-05-14T04:46:55.278Z,26.65
2023-05-14T04:47:55.431Z,29.82
2023-05-14T04:48:55.444Z,27.49
2023-05-14T04:49:55.513Z,28.68
2023-05-14T04:50:55.573Z,26.26
2023-05-14T04:51:55.624Z,26.43
2023-05-14T04:52:55.688Z,29.21
2023-05-14T04:53:55.742Z,29.64
2023-05-14T04:54:55.816Z,29.12
2023-05-14T04:55:55.925Z,29.60
2023-05-14T04:56:55.941Z,29.09
2023-05-14T04:57:56.052Z,31.03
2023-05-14T04:58:56.117Z,34.23
2023-05-14T04:59:56.236Z,33.38
2023-05-14T05:00:56.324Z,34.94
2023-05-14T05:01:56.358Z,33.05
2023-05-14T05:02:56.444Z,32.75
2023-05-14T05:03:56.564Z,34.73
2023-05-14T05:04:56.575Z,33.92
2023-05-14T05:05:56.623Z,35.01
2023-05-14T05:06:56.680Z,31.20
2023-05-14T05:07:56.680Z,31.22
2023-05-14T05:08:56.697Z,31.20
2023-05-14T05:09:56.707Z,28.94
2023-05-14T05:10:56.724Z,27.73
2023-05-14T05:11:56.721Z,26.14
2023-05-14T05:12:56.739Z,25.00
2023-05-14T05:13:56.731Z,26.31
2023-05-14T05:14:56.739Z,30.85
2023-05-14T05:15:56.880Z,29.65
2023-05-14T05:16:56.880Z,28.81
2023-05-14T05:17:57.009Z,28.24
2023-05-14T05:18:57.080Z,30.19
2023-05-14T05:19:57.099Z,29.91
2023-05-14T05:20:57.164Z,27.78
2023-05-14T05:21:57.209Z,30.10
2023-05-14T05:22:57.296Z,25.00
2023-05-14T05:23:57.356Z,27.57
2023-05-14T05:24:57.417Z,28.58
2023-05-14T05:25:57.487Z,29.72
2023-05-14T05:26:57.535Z,27.93
2023-05-14T05:27:57.604Z,28.09
2023-05-14T05:28:57.691Z,25.01
2023-05-14T05:29:57.753Z,28.55
2023-05-14T05:30:57.811Z,25.87
2023-05-14T05:31:57.868Z,27.17
2023-05-14T05:32:58.060Z,28.43
2023-05-14T05:33:57.985Z,25.22
2023-05-14T05:34:58.033Z,28.24
2023-05-14T05:35:58.104Z,27.70
2023-05-14T05:36:58.196Z,30.39
2023-05-14T05:38:00.420Z,27.52
2023-05-14T05:38:58.297Z,27.54
2023-05-14T05:39:58.303Z,27.55
2023-05-14T05:40:58.320Z,23.86
2023-05-14T05:41:58.325Z,23.47
2023-05-14T05:42:58.328Z,23.35
2023-05-14T05:43:58.318Z,26.86
2023-05-14T05:44:58.346Z,25.00
2023-05-14T05:45:58.339Z,29.28
2023-05-14T05:46:58.356Z,29.65
2023-05-14T05:47:58.438Z,28.09
2023-05-14T05:48:58.469Z,29.49
2023-05-14T05:49:58.527Z,29.35
2023-05-14T05:50:58.614Z,30.21
2023-05-14T05:51:58.626Z,33.20
2023-05-14T05:52:58.715Z,30.54
2023-05-14T05:53:58.774Z,25.96
2023-05-14T05:54:58.840Z,30.83
2023-05-14T05:55:58.945Z,30.62
2023-05-14T05:56:59.013Z,25.35
2023-05-14T05:57:59.041Z,26.58
2023-05-14T05:58:59.144Z,26.97
2023-05-14T05:59:59.179Z,25.75
2023-05-14T06:00:59.281Z,27.58
2023-05-14T06:01:59.324Z,28.37
2023-05-14T06:02:59.326Z,28.47
2023-05-14T06:03:59.367Z,25.00
2023-05-14T06:04:59.409Z,28.87
2023-05-14T06:05:59.484Z,25.00
2023-05-14T06:06:59.552Z,30.38
2023-05-14T06:07:59.633Z,29.69
2023-05-14T06:08:59.684Z,25.00
2023-05-14T06:09:59.736Z,25.00
2023-05-14T06:10:59.780Z,29.08
2023-05-14T06:11:59.889Z,26.82
2023-05-14T06:12:59.865Z,28.64
2023-05-14T06:13:59.929Z,25.84
2023-05-14T06:15:00.023Z,31.28
2023-05-14T06:16:00.139Z,30.27
2023-05-14T06:17:00.471Z,32.66
2023-05-14T06:18:00.282Z,32.84
2023-05-14T06:19:00.333Z,32.36
2023-05-14T06:20:00.421Z,30.59
2023-05-14T06:21:00.509Z,32.54
2023-05-14T06:22:00.509Z,36.03
2023-05-14T06:23:00.564Z,35.17
2023-05-14T06:24:00.611Z,34.87
2023-05-14T06:25:00.689Z,33.37
2023-05-14T06:26:00.734Z,33.65
2023-05-14T06:27:00.833Z,31.51
2023-05-14T06:28:00.925Z,29.88
2023-05-14T06:29:01.002Z,28.91
2023-05-14T06:30:01.043Z,25.00
2023-05-14T06:31:01.063Z,28.68
2023-05-14T06:32:01.204Z,27.26
2023-05-14T06:33:01.338Z,27.18
2023-05-14T06:34:01.294Z,26.17
2023-05-14T06:35:01.304Z,27.98
2023-05-14T06:36:01.390Z,29.83
2023-05-14T06:37:01.429Z,26.98
2023-05-14T06:38:01.484Z,27.54
2023-05-14T06:39:01.555Z,26.97
2023-05-14T06:40:01.631Z,25.50
2023-05-14T06:41:01.708Z,25.00
2023-05-14T06:42:01.695Z,25.09
2023-05-14T06:43:01.709Z,25.07
2023-05-14T06:44:01.703Z,21.75
2023-05-14T06:45:01.710Z,22.42
2023-05-14T06:46:01.732Z,21.90
2023-05-14T06:47:01.794Z,15.47
2023-05-14T06:48:01.806Z,11.37
2023-05-14T06:49:01.798Z,11.68
2023-05-14T06:50:01.769Z,26.73
2023-05-14T06:51:01.784Z,27.03
2023-05-14T06:52:01.778Z,27.11
2023-05-14T06:53:01.774Z,25.65
2023-05-14T06:54:01.784Z,22.06
2023-05-14T06:55:01.783Z,17.54
2023-05-14T06:56:01.802Z,14.23
2023-05-14T06:57:01.816Z,28.73
2023-05-14T06:58:01.825Z,26.03
2023-05-14T06:59:01.825Z,26.59
2023-05-14T07:00:03.484Z,26.69
2023-05-14T07:01:01.909Z,24.38
2023-05-14T07:02:01.836Z,23.81
2023-05-14T07:03:01.846Z,20.23
2023-05-14T07:04:01.942Z,22.38
2023-05-14T07:05:01.843Z,27.17
2023-05-14T07:06:01.902Z,30.84
2023-05-14T07:07:01.930Z,32.73
2023-05-14T07:08:01.960Z,34.04
2023-05-14T07:09:02.020Z,36.27
2023-05-14T07:10:02.082Z,38.74
2023-05-14T07:11:02.215Z,36.09
2023-05-14T07:12:02.257Z,34.18
2023-05-14T07:13:02.340Z,29.35
2023-05-14T07:14:02.430Z,29.89
2023-05-14T07:15:02.516Z,27.57
2023-05-14T07:16:02.613Z,26.49
2023-05-14T07:17:02.704Z,27.11
2023-05-14T07:18:02.768Z,26.23
2023-05-14T07:19:02.821Z,25.00
2023-05-14T07:20:02.863Z,26.03
2023-05-14T07:21:02.936Z,25.90
2023-05-14T07:22:03.025Z,27.75
2023-05-14T07:23:03.086Z,25.00
2023-05-14T07:24:03.141Z,25.81
2023-05-14T07:25:03.295Z,27.70
2023-05-14T07:26:03.281Z,26.32
2023-05-14T07:27:03.388Z,25.52
2023-05-14T07:28:03.391Z,25.13
2023-05-14T07:29:03.457Z,27.74
2023-05-14T07:30:03.521Z,25.00
2023-05-14T07:31:03.605Z,25.70
2023-05-14T07:32:03.682Z,25.42
2023-05-14T07:33:03.807Z,28.64
2023-05-14T07:34:03.812Z,25.17
2023-05-14T07:35:03.889Z,25.59
2023-05-14T07:36:03.954Z,25.20
2023-05-14T07:37:04.031Z,24.59
2023-05-14T07:38:04.082Z,25.00
2023-05-14T07:39:04.154Z,25.00
2023-05-14T07:40:04.205Z,25.00
2023-05-14T07:41:04.286Z,25.71
2023-05-14T07:42:04.378Z,27.19
2023-05-14T07:43:04.410Z,26.83
2023-05-14T07:44:04.501Z,29.04
2023-05-14T07:45:04.564Z,25.00
2023-05-14T07:46:04.626Z,27.06
2023-05-14T07:47:04.752Z,26.22
2023-05-14T07:48:04.837Z,25.57
2023-05-14T07:49:04.842Z,25.25
2023-05-14T07:50:04.883Z,25.54
2023-05-14T07:51:04.949Z,25.30
2023-05-14T07:52:05.015Z,27.50
2023-05-14T07:53:05.085Z,25.63
2023-05-14T07:54:05.134Z,25.27
2023-05-14T07:55:05.198Z,26.34
2023-05-14T07:56:05.258Z,25.00
2023-05-14T07:57:05.342Z,25.00
2023-05-14T07:58:05.385Z,27.15
2023-05-14T07:59:05.445Z,28.84
2023-05-14T08:00:05.502Z,25.99
2023-05-14T08:01:05.572Z,27.46
2023-05-14T08:02:05.726Z,28.20
2023-05-14T08:03:05.935Z,27.68
2023-05-14T08:04:05.846Z,27.04
2023-05-14T08:05:05.851Z,27.19
2023-05-14T08:06:05.893Z,25.00
2023-05-14T08:07:05.960Z,27.51
2023-05-14T08:08:06.040Z,25.00
2023-05-14T08:09:06.089Z,25.87
2023-05-14T08:10:06.165Z,27.60
2023-05-14T08:11:06.301Z,30.59
2023-05-14T08:12:06.289Z,26.17
2023-05-14T08:13:06.318Z,26.21
2023-05-14T08:14:06.308Z,24.48
2023-05-14T08:15:06.293Z,25.19
2023-05-14T08:16:06.288Z,21.83
2023-05-14T08:17:06.400Z,19.46
2023-05-14T08:18:06.376Z,25.07
2023-05-14T08:19:06.349Z,25.31
2023-05-14T08:20:06.278Z,25.14
2023-05-14T08:21:06.290Z,25.20
2023-05-14T08:22:06.279Z,27.38
2023-05-14T08:23:06.338Z,29.67
2023-05-14T08:24:06.414Z,30.07
2023-05-14T08:25:06.501Z,31.76
2023-05-14T08:26:06.523Z,29.84
2023-05-14T08:27:06.604Z,27.59
2023-05-14T08:28:06.638Z,25.98
2023-05-14T08:29:07.456Z,25.75
2023-05-14T08:30:06.759Z,29.85
2023-05-14T08:31:06.850Z,27.74
2023-05-14T08:32:15.936Z,25.00
2023-05-14T08:33:07.907Z,23.65
2023-05-14T08:34:06.895Z,22.72
2023-05-14T08:35:06.900Z,22.71
2023-05-14T08:36:06.884Z,18.19
2023-05-14T08:37:06.887Z,15.70
2023-05-14T08:38:06.900Z,27.26
2023-05-14T08:39:06.886Z,25.85
2023-05-14T08:40:06.884Z,25.57
2023-05-14T08:41:06.882Z,25.00
2023-05-14T08:42:06.895Z,26.87
2023-05-14T08:43:06.900Z,25.00
2023-05-14T08:44:06.900Z,28.19
2023-05-14T08:45:06.922Z,25.00
2023-05-14T08:46:06.984Z,26.38
2023-05-14T08:47:07.039Z,26.84
2023-05-14T08:48:07.144Z,30.44
2023-05-14T08:49:07.240Z,25.00
2023-05-14T08:50:07.218Z,37.39
2023-05-14T08:51:07.269Z,50.31
2023-05-14T08:52:07.324Z,69.31
2023-05-14T08:53:07.412Z,79.79
2023-05-14T08:54:07.422Z,95.85
2023-05-14T08:55:07.477Z,113.95
2023-05-14T08:56:07.503Z,125.20
2023-05-14T08:57:07.573Z,140.55
2023-05-14T08:58:07.582Z,156.23
2023-05-14T08:59:07.621Z,169.93
2023-05-14T09:00:07.649Z,179.90
2023-05-14T09:01:07.694Z,190.82
2023-05-14T09:02:07.863Z,203.66
2023-05-14T09:03:07.846Z,209.74
2023-05-14T09:04:07.716Z,219.99
2023-05-14T09:05:07.744Z,230.01
2023-05-14T09:06:07.725Z,236.83
2023-05-14T09:07:07.748Z,240.96
2023-05-14T09:08:07.745Z,241.44
2023-05-14T09:09:07.772Z,243.60
2023-05-14T09:10:07.726Z,251.96
2023-05-14T09:11:07.720Z,265.67
2023-05-14T09:12:07.714Z,286.58
2023-05-14T09:13:07.733Z,244.50
2023-05-14T09:14:07.721Z,250.00
2023-05-14T09:15:07.731Z,244.46
2023-05-14T09:16:07.764Z,250.00
2023-05-14T09:17:07.710Z,248.23
2023-05-14T09:18:07.728Z,246.36
2023-05-14T09:19:07.810Z,250.78
2023-05-14T09:20:07.736Z,247.24
2023-05-14T09:21:07.678Z,250.18
2023-05-14T09:22:07.684Z,244.55
2023-05-14T09:23:07.666Z,250.36
2023-05-14T09:24:07.664Z,249.34
2023-05-14T09:25:07.668Z,244.64
2023-05-14T09:26:07.664Z,250.50
2023-05-14T09:27:07.670Z,250.00
2023-05-14T09:28:07.694Z,250.93
2023-05-14T09:29:07.737Z,251.86
2023-05-14T09:30:07.789Z,248.50
2023-05-14T09:31:07.883Z,244.29
2023-05-14T09:32:07.926Z,248.59
2023-05-14T09:33:07.993Z,250.48
2023-05-14T09:34:08.006Z,248.65
2023-05-14T09:35:08.077Z,245.98
2023-05-14T09:36:08.130Z,247.58
2023-05-14T09:37:08.191Z,247.76
2023-05-14T09:38:08.247Z,250.61
2023-05-14T09:39:08.299Z,249.96
2023-05-14T09:40:08.372Z,247.89
2023-05-14T09:41:08.406Z,245.35
2023-05-14T09:42:08.483Z,248.35
2023-05-14T09:43:08.523Z,250.16
2023-05-14T09:44:08.599Z,249.00
2023-05-14T09:45:08.650Z,246.19
2023-05-14T09:46:08.683Z,247.42
2023-05-14T09:47:08.833Z,250.50
2023-05-14T09:48:08.876Z,249.20
2023-05-14T09:49:08.843Z,246.04
2023-05-14T09:50:08.907Z,249.62
2023-05-14T09:51:08.877Z,246.19
2023-05-14T09:52:08.893Z,249.71
2023-05-14T09:53:08.878Z,250.94
2023-05-14T09:54:08.871Z,253.11
2023-05-14T09:55:08.834Z,258.24
2023-05-14T09:56:08.824Z,247.34
2023-05-14T09:57:08.821Z,247.05
2023-05-14T09:58:08.817Z,249.51
2023-05-14T09:59:08.859Z,245.06
2023-05-14T10:00:08.866Z,245.23
2023-05-14T10:01:08.896Z,245.93
2023-05-14T10:02:08.851Z,247.64
2023-05-14T10:03:08.859Z,248.82
2023-05-14T10:04:08.827Z,253.30
2023-05-14T10:05:08.813Z,247.27
2023-05-14T10:06:08.814Z,246.20
2023-05-14T10:07:08.813Z,247.94
2023-05-14T10:08:08.783Z,247.32
2023-05-14T10:09:08.852Z,249.44
2023-05-14T10:10:08.909Z,244.97
2023-05-14T10:11:08.968Z,244.63
2023-05-14T10:12:09.026Z,249.42
2023-05-14T10:13:09.057Z,249.01
2023-05-14T10:14:09.120Z,248.27
2023-05-14T10:15:09.176Z,248.34
2023-05-14T10:16:09.239Z,246.35
2023-05-14T10:17:09.363Z,247.00
2023-05-14T10:18:09.383Z,249.08
2023-05-14T10:19:09.510Z,248.03
2023-05-14T10:20:09.480Z,247.97
2023-05-14T10:21:09.500Z,250.00
2023-05-14T10:22:09.555Z,246.77
2023-05-14T10:23:09.600Z,245.98
2023-05-14T10:24:09.645Z,247.74
2023-05-14T10:25:09.692Z,246.56
2023-05-14T10:26:09.687Z,246.58
2023-05-14T10:27:09.685Z,246.82
2023-05-14T10:28:09.667Z,246.81
2023-05-14T10:29:09.671Z,250.42
2023-05-14T10:30:09.661Z,250.68
2023-05-14T10:31:09.699Z,250.04
2023-05-14T10:32:09.682Z,246.86
2023-05-14T10:33:09.685Z,250.00
2023-05-14T10:34:09.638Z,246.51
2023-05-14T10:35:09.695Z,246.80
2023-05-14T10:36:09.744Z,246.60
2023-05-14T10:37:09.790Z,249.34
2023-05-14T10:38:09.846Z,244.39
2023-05-14T10:39:09.896Z,247.02
2023-05-14T10:40:09.938Z,245.53
2023-05-14T10:41:09.918Z,245.62
2023-05-14T10:42:09.918Z,245.99
2023-05-14T10:43:09.904Z,247.56
2023-05-14T10:44:09.877Z,247.55
2023-05-14T10:45:09.861Z,251.47
2023-05-14T10:46:09.934Z,248.85
2023-05-14T10:47:09.846Z,245.17
2023-05-14T10:48:09.880Z,245.71
2023-05-14T10:49:09.848Z,247.94
2023-05-14T10:50:09.891Z,245.24
2023-05-14T10:51:10.036Z,248.70
2023-05-14T10:52:09.963Z,246.52
2023-05-14T10:53:10.014Z,245.04
2023-05-14T10:54:10.060Z,246.35
2023-05-14T10:55:10.206Z,249.52
2023-05-14T10:56:10.143Z,245.58
2023-05-14T10:57:10.183Z,246.59
2023-05-14T10:58:10.235Z,248.03
2023-05-14T10:59:10.281Z,245.52
2023-05-14T11:00:10.320Z,248.42
2023-05-14T11:01:10.377Z,247.42
2023-05-14T11:02:10.528Z,244.69
2023-05-14T11:03:10.496Z,245.08
2023-05-14T11:04:10.492Z,246.12
2023-05-14T11:05:10.529Z,249.50
2023-05-14T11:06:10.588Z,246.81
2023-05-14T11:07:10.607Z,248.33
2023-05-14T11:08:10.677Z,247.32
2023-05-14T11:09:10.681Z,246.21
2023-05-14T11:10:10.748Z,245.89
2023-05-14T11:11:10.845Z,245.99
2023-05-14T11:12:10.794Z,247.43
2023-05-14T11:13:10.848Z,246.98
2023-05-14T11:14:10.883Z,249.02
2023-05-14T11:15:10.931Z,247.25
2023-05-14T11:16:22.923Z,247.02
2023-05-14T11:17:12.092Z,247.06
2023-05-14T11:18:10.969Z,247.51
2023-05-14T11:19:11.050Z,247.29
2023-05-14T11:20:10.894Z,248.15
2023-05-14T11:21:10.913Z,249.84
2023-05-14T11:22:10.871Z,247.11
2023-05-14T11:23:10.846Z,247.49
2023-05-14T11:24:10.838Z,248.66
2023-05-14T11:25:10.830Z,249.42
2023-05-14T11:26:10.861Z,250.26
2023-05-14T11:27:10.792Z,249.22
2023-05-14T11:28:10.770Z,247.61
2023-05-14T11:29:10.769Z,248.69
2023-05-14T11:30:10.747Z,247.11
2023-05-14T11:31:10.781Z,248.59
2023-05-14T11:32:10.990Z,245.13
2023-05-14T11:33:10.760Z,245.25
2023-05-14T11:34:10.689Z,245.40
2023-05-14T11:35:10.680Z,245.81
2023-05-14T11:36:10.661Z,245.66
2023-05-14T11:37:10.646Z,248.57
2023-05-14T11:38:10.660Z,247.48
2023-05-14T11:39:10.629Z,245.99
2023-05-14T11:40:10.626Z,246.13
2023-05-14T11:41:10.591Z,246.36
2023-05-14T11:42:10.582Z,246.84
2023-05-14T11:43:10.582Z,246.82
2023-05-14T11:44:10.558Z,247.42
2023-05-14T11:45:10.543Z,248.01
2023-05-14T11:46:10.580Z,247.56
2023-05-14T11:47:10.506Z,247.63
2023-05-14T11:48:10.509Z,248.11
2023-05-14T11:49:10.506Z,247.66
2023-05-14T11:50:10.454Z,247.84
2023-05-14T11:51:10.437Z,247.87
2023-05-14T11:52:10.468Z,248.02
2023-05-14T11:53:10.420Z,248.39
2023-05-14T11:54:10.408Z,249.21
2023-05-14T11:55:10.391Z,247.83
2023-05-14T11:56:10.375Z,247.77
2023-05-14T11:57:10.366Z,246.90
2023-05-14T11:58:10.371Z,248.65
2023-05-14T11:59:10.340Z,247.91
2023-05-14T12:00:10.321Z,248.71
2023-05-14T12:01:10.315Z,247.95
2023-05-14T12:02:10.344Z,247.71
2023-05-14T12:03:10.428Z,247.08
2023-05-14T12:04:10.414Z,247.42
2023-05-14T12:05:10.363Z,249.02
2023-05-14T12:06:10.409Z,248.06
2023-05-14T12:07:10.437Z,249.33
2023-05-14T12:08:10.446Z,246.89
2023-05-14T12:09:10.460Z,248.14
2023-05-14T12:10:10.492Z,246.93
2023-05-14T12:11:10.541Z,246.40
2023-05-14T12:12:10.542Z,247.26
2023-05-14T12:13:10.573Z,247.31
2023-05-14T12:14:10.601Z,246.86
2023-05-14T12:15:10.623Z,247.05
2023-05-14T12:16:10.697Z,247.38
2023-05-14T12:17:10.633Z,247.42
2023-05-14T12:18:23.021Z,247.45
2023-05-14T12:19:11.651Z,247.53
2023-05-14T12:20:10.576Z,247.99
2023-05-14T12:21:10.564Z,248.19
2023-05-14T12:22:10.561Z,248.86
2023-05-14T12:23:10.561Z,249.34
2023-05-14T12:24:10.519Z,246.85
2023-05-14T12:25:10.507Z,248.33
2023-05-14T12:26:10.500Z,247.23
2023-05-14T12:27:10.473Z,247.85
2023-05-14T12:28:10.467Z,247.04
2023-05-14T12:29:10.441Z,245.71
2023-05-14T12:31:10.467Z,249.80
2023-05-14T12:32:10.395Z,245.74
2023-05-14T12:33:10.471Z,248.61
2023-05-14T12:34:10.365Z,247.11
2023-05-14T12:35:10.340Z,245.55
2023-05-14T12:36:21.415Z,246.45
2023-05-14T12:37:11.312Z,246.56
2023-05-14T12:38:10.306Z,246.78
2023-05-14T12:39:10.295Z,246.86
2023-05-14T12:40:10.367Z,247.95
2023-05-14T12:41:10.259Z,248.04
2023-05-14T12:42:10.248Z,246.56
2023-05-14T12:43:10.262Z,246.83
2023-05-14T12:44:10.217Z,246.50